sensor_id;sensor_type;location;lat;lon;timestamp;temperature;humidity
79055;DHT22;68452;47.186;-1.528;2023-04-03T00:01:15;10.40;59.30
79055;DHT22;68452;47.186;-1.528;2023-04-03T00:03:40;10.40;59.50
79055;DHT22;68452;47.186;-1.528;2023-04-03T00:06:11;10.50;59.10
79055;DHT22;68452;47.186;-1.528;2023-04-03T00:08:37;10.50;58.80
79055;DHT22;68452;47.186;-1.528;2023-04-03T00:11:05;10.50;58.80
79055;DHT22;68452;47.186;-1.528;2023-04-03T00:13:31;10.50;58.60
79055;DHT22;68452;47.186;-1.528;2023-04-03T00:15:57;10.50;58.60
79055;DHT22;68452;47.186;-1.528;2023-04-03T00:18:24;10.30;59.20
79055;DHT22;68452;47.186;-1.528;2023-04-03T00:20:50;10.40;58.90
79055;DHT22;68452;47.186;-1.528;2023-04-03T00:23:16;10.30;59.20
79055;DHT22;68452;47.186;-1.528;2023-04-03T00:25:42;10.40;59.50
79055;DHT22;68452;47.186;-1.528;2023-04-03T00:28:09;10.30;59.20
79055;DHT22;68452;47.186;-1.528;2023-04-03T00:30:35;10.40;59.20
79055;DHT22;68452;47.186;-1.528;2023-04-03T00:33:00;10.40;59.20
79055;DHT22;68452;47.186;-1.528;2023-04-03T00:35:27;10.40;59.20
79055;DHT22;68452;47.186;-1.528;2023-04-03T00:37:54;10.30;59.30
79055;DHT22;68452;47.186;-1.528;2023-04-03T00:40:22;10.30;59.20
79055;DHT22;68452;47.186;-1.528;2023-04-03T00:42:51;10.30;59.40
79055;DHT22;68452;47.186;-1.528;2023-04-03T00:45:47;10.20;59.50
79055;DHT22;68452;47.186;-1.528;2023-04-03T00:48:18;10.20;59.80
79055;DHT22;68452;47.186;-1.528;2023-04-03T00:50:46;10.20;59.50
79055;DHT22;68452;47.186;-1.528;2023-04-03T00:53:18;10.10;59.80
79055;DHT22;68452;47.186;-1.528;2023-04-03T00:55:47;9.90;60.20
79055;DHT22;68452;47.186;-1.528;2023-04-03T00:58:15;9.90;60.10
79055;DHT22;68452;47.186;-1.528;2023-04-03T01:00:46;10.00;60.00
79055;DHT22;68452;47.186;-1.528;2023-04-03T01:03:13;9.90;60.00
79055;DHT22;68452;47.186;-1.528;2023-04-03T01:05:40;9.90;59.90
79055;DHT22;68452;47.186;-1.528;2023-04-03T01:08:06;9.70;60.60
79055;DHT22;68452;47.186;-1.528;2023-04-03T01:10:32;9.70;60.20
79055;DHT22;68452;47.186;-1.528;2023-04-03T01:12:59;9.70;60.20
79055;DHT22;68452;47.186;-1.528;2023-04-03T01:15:27;9.60;60.50
79055;DHT22;68452;47.186;-1.528;2023-04-03T01:17:58;9.60;60.50
79055;DHT22;68452;47.186;-1.528;2023-04-03T01:25:58;9.60;60.80
79055;DHT22;68452;47.186;-1.528;2023-04-03T01:28:34;9.70;60.50
79055;DHT22;68452;47.186;-1.528;2023-04-03T01:31:18;9.60;60.20
79055;DHT22;68452;47.186;-1.528;2023-04-03T01:33:46;9.60;60.60
79055;DHT22;68452;47.186;-1.528;2023-04-03T01:36:24;9.60;60.20
79055;DHT22;68452;47.186;-1.528;2023-04-03T01:38:52;9.60;60.00
79055;DHT22;68452;47.186;-1.528;2023-04-03T01:41:18;9.50;60.00
79055;DHT22;68452;47.186;-1.528;2023-04-03T01:43:46;9.40;60.30
79055;DHT22;68452;47.186;-1.528;2023-04-03T01:46:13;9.40;60.30
79055;DHT22;68452;47.186;-1.528;2023-04-03T01:48:39;9.20;60.50
79055;DHT22;68452;47.186;-1.528;2023-04-03T01:51:05;9.00;60.90
79055;DHT22;68452;47.186;-1.528;2023-04-03T01:53:31;8.90;61.10
79055;DHT22;68452;47.186;-1.528;2023-04-03T01:55:57;8.80;61.10
79055;DHT22;68452;47.186;-1.528;2023-04-03T01:58:23;8.70;61.00
79055;DHT22;68452;47.186;-1.528;2023-04-03T02:00:49;8.80;60.50
79055;DHT22;68452;47.186;-1.528;2023-04-03T02:03:16;8.90;59.90
79055;DHT22;68452;47.186;-1.528;2023-04-03T02:05:42;8.90;60.00
79055;DHT22;68452;47.186;-1.528;2023-04-03T02:08:07;8.80;60.30
79055;DHT22;68452;47.186;-1.528;2023-04-03T02:10:33;8.80;60.20
79055;DHT22;68452;47.186;-1.528;2023-04-03T02:12:59;8.70;60.20
79055;DHT22;68452;47.186;-1.528;2023-04-03T02:15:25;8.60;60.60
79055;DHT22;68452;47.186;-1.528;2023-04-03T02:17:51;8.60;60.20
79055;DHT22;68452;47.186;-1.528;2023-04-03T02:20:18;8.60;60.10
79055;DHT22;68452;47.186;-1.528;2023-04-03T02:22:43;8.60;60.20
79055;DHT22;68452;47.186;-1.528;2023-04-03T02:25:09;8.60;59.70
79055;DHT22;68452;47.186;-1.528;2023-04-03T02:27:36;8.60;60.40
79055;DHT22;68452;47.186;-1.528;2023-04-03T02:30:03;8.60;60.00
79055;DHT22;68452;47.186;-1.528;2023-04-03T02:32:29;8.60;59.90
79055;DHT22;68452;47.186;-1.528;2023-04-03T02:34:55;8.60;59.90
79055;DHT22;68452;47.186;-1.528;2023-04-03T02:37:21;8.70;59.60
79055;DHT22;68452;47.186;-1.528;2023-04-03T02:39:47;8.70;59.50
79055;DHT22;68452;47.186;-1.528;2023-04-03T02:42:13;8.80;59.40
79055;DHT22;68452;47.186;-1.528;2023-04-03T02:44:39;8.80;59.10
79055;DHT22;68452;47.186;-1.528;2023-04-03T02:47:04;8.80;59.20
79055;DHT22;68452;47.186;-1.528;2023-04-03T02:49:31;8.60;59.90
79055;DHT22;68452;47.186;-1.528;2023-04-03T02:51:57;8.40;60.00
79055;DHT22;68452;47.186;-1.528;2023-04-03T02:54:23;8.30;60.30
79055;DHT22;68452;47.186;-1.528;2023-04-03T02:56:50;8.30;60.30
79055;DHT22;68452;47.186;-1.528;2023-04-03T02:59:15;8.30;60.40
79055;DHT22;68452;47.186;-1.528;2023-04-03T03:01:41;8.40;60.00
79055;DHT22;68452;47.186;-1.528;2023-04-03T03:04:07;8.40;59.90
79055;DHT22;68452;47.186;-1.528;2023-04-03T03:06:33;8.40;59.90
79055;DHT22;68452;47.186;-1.528;2023-04-03T03:08:59;8.40;60.00
79055;DHT22;68452;47.186;-1.528;2023-04-03T03:11:25;8.40;59.70
79055;DHT22;68452;47.186;-1.528;2023-04-03T03:13:51;8.40;59.70
79055;DHT22;68452;47.186;-1.528;2023-04-03T03:16:17;8.40;59.50
79055;DHT22;68452;47.186;-1.528;2023-04-03T03:18:43;8.40;59.50
79055;DHT22;68452;47.186;-1.528;2023-04-03T03:21:09;8.40;59.30
79055;DHT22;68452;47.186;-1.528;2023-04-03T03:23:35;8.30;59.70
79055;DHT22;68452;47.186;-1.528;2023-04-03T03:26:06;8.30;59.40
79055;DHT22;68452;47.186;-1.528;2023-04-03T03:28:33;8.40;59.20
79055;DHT22;68452;47.186;-1.528;2023-04-03T03:31:00;8.40;59.20
79055;DHT22;68452;47.186;-1.528;2023-04-03T03:33:26;8.30;59.30
79055;DHT22;68452;47.186;-1.528;2023-04-03T03:35:53;8.20;59.70
79055;DHT22;68452;47.186;-1.528;2023-04-03T03:38:19;8.20;59.80
79055;DHT22;68452;47.186;-1.528;2023-04-03T03:40:47;8.30;59.30
79055;DHT22;68452;47.186;-1.528;2023-04-03T03:43:14;8.10;59.50
79055;DHT22;68452;47.186;-1.528;2023-04-03T03:45:40;8.10;59.60
79055;DHT22;68452;47.186;-1.528;2023-04-03T03:48:06;8.10;59.60
79055;DHT22;68452;47.186;-1.528;2023-04-03T03:50:32;8.10;59.30
79055;DHT22;68452;47.186;-1.528;2023-04-03T03:52:58;8.10;59.70
79055;DHT22;68452;47.186;-1.528;2023-04-03T03:55:24;8.10;59.70
79055;DHT22;68452;47.186;-1.528;2023-04-03T03:57:50;7.90;60.10
79055;DHT22;68452;47.186;-1.528;2023-04-03T04:00:16;7.90;60.00
79055;DHT22;68452;47.186;-1.528;2023-04-03T04:02:42;7.80;60.20
79055;DHT22;68452;47.186;-1.528;2023-04-03T04:05:08;7.80;60.30
79055;DHT22;68452;47.186;-1.528;2023-04-03T04:07:34;7.70;60.20
79055;DHT22;68452;47.186;-1.528;2023-04-03T04:10:00;7.70;60.30
79055;DHT22;68452;47.186;-1.528;2023-04-03T04:12:26;7.80;60.00
79055;DHT22;68452;47.186;-1.528;2023-04-03T04:14:51;7.90;59.90
79055;DHT22;68452;47.186;-1.528;2023-04-03T04:17:17;8.00;59.40
79055;DHT22;68452;47.186;-1.528;2023-04-03T04:19:43;8.00;59.40
79055;DHT22;68452;47.186;-1.528;2023-04-03T04:22:09;8.00;59.30
79055;DHT22;68452;47.186;-1.528;2023-04-03T04:24:35;8.00;59.30
79055;DHT22;68452;47.186;-1.528;2023-04-03T04:27:00;8.10;58.90
79055;DHT22;68452;47.186;-1.528;2023-04-03T04:29:26;8.00;59.10
79055;DHT22;68452;47.186;-1.528;2023-04-03T04:31:52;8.00;59.20
79055;DHT22;68452;47.186;-1.528;2023-04-03T04:34:18;7.90;59.50
79055;DHT22;68452;47.186;-1.528;2023-04-03T04:36:44;7.90;59.20
79055;DHT22;68452;47.186;-1.528;2023-04-03T04:39:09;8.00;58.90
79055;DHT22;68452;47.186;-1.528;2023-04-03T04:41:35;8.00;58.80
79055;DHT22;68452;47.186;-1.528;2023-04-03T04:44:02;8.00;58.90
79055;DHT22;68452;47.186;-1.528;2023-04-03T04:46:27;7.90;59.00
79055;DHT22;68452;47.186;-1.528;2023-04-03T04:48:53;7.90;58.90
79055;DHT22;68452;47.186;-1.528;2023-04-03T04:51:19;7.80;59.10
79055;DHT22;68452;47.186;-1.528;2023-04-03T04:53:45;7.70;59.50
79055;DHT22;68452;47.186;-1.528;2023-04-03T04:56:11;7.70;59.30
79055;DHT22;68452;47.186;-1.528;2023-04-03T04:58:37;7.70;59.40
79055;DHT22;68452;47.186;-1.528;2023-04-03T05:01:05;7.70;59.40
79055;DHT22;68452;47.186;-1.528;2023-04-03T05:03:32;7.60;59.50
79055;DHT22;68452;47.186;-1.528;2023-04-03T05:05:58;7.60;59.70
79055;DHT22;68452;47.186;-1.528;2023-04-03T05:08:24;7.50;59.90
79055;DHT22;68452;47.186;-1.528;2023-04-03T05:10:50;7.40;60.00
79055;DHT22;68452;47.186;-1.528;2023-04-03T05:13:16;7.40;60.00
79055;DHT22;68452;47.186;-1.528;2023-04-03T05:15:42;7.40;60.00
79055;DHT22;68452;47.186;-1.528;2023-04-03T05:18:08;7.40;60.10
79055;DHT22;68452;47.186;-1.528;2023-04-03T05:20:34;7.30;60.60
79055;DHT22;68452;47.186;-1.528;2023-04-03T05:23:00;7.20;60.60
79055;DHT22;68452;47.186;-1.528;2023-04-03T05:25:26;7.20;60.80
79055;DHT22;68452;47.186;-1.528;2023-04-03T05:27:52;7.10;60.90
79055;DHT22;68452;47.186;-1.528;2023-04-03T05:30:18;7.20;60.70
79055;DHT22;68452;47.186;-1.528;2023-04-03T05:32:44;7.20;61.20
79055;DHT22;68452;47.186;-1.528;2023-04-03T05:35:11;6.90;61.40
79055;DHT22;68452;47.186;-1.528;2023-04-03T05:37:37;6.80;61.60
79055;DHT22;68452;47.186;-1.528;2023-04-03T05:40:04;6.90;61.60
79055;DHT22;68452;47.186;-1.528;2023-04-03T05:42:31;6.90;61.60
79055;DHT22;68452;47.186;-1.528;2023-04-03T05:45:00;6.90;61.70
79055;DHT22;68452;47.186;-1.528;2023-04-03T05:47:28;7.00;61.30
79055;DHT22;68452;47.186;-1.528;2023-04-03T05:49:55;6.90;61.60
79055;DHT22;68452;47.186;-1.528;2023-04-03T05:52:27;6.90;61.80
79055;DHT22;68452;47.186;-1.528;2023-04-03T05:54:54;6.90;61.40
79055;DHT22;68452;47.186;-1.528;2023-04-03T05:57:20;6.90;61.80
79055;DHT22;68452;47.186;-1.528;2023-04-03T05:59:47;6.90;61.60
79055;DHT22;68452;47.186;-1.528;2023-04-03T06:02:15;6.80;61.90
79055;DHT22;68452;47.186;-1.528;2023-04-03T06:04:41;6.80;62.00
79055;DHT22;68452;47.186;-1.528;2023-04-03T06:07:09;7.00;61.50
79055;DHT22;68452;47.186;-1.528;2023-04-03T06:09:36;7.10;61.50
79055;DHT22;68452;47.186;-1.528;2023-04-03T06:12:02;7.00;61.40
79055;DHT22;68452;47.186;-1.528;2023-04-03T06:14:28;7.10;61.50
79055;DHT22;68452;47.186;-1.528;2023-04-03T06:16:54;7.20;60.90
79055;DHT22;68452;47.186;-1.528;2023-04-03T06:19:20;7.20;60.80
79055;DHT22;68452;47.186;-1.528;2023-04-03T06:21:46;7.20;60.80
79055;DHT22;68452;47.186;-1.528;2023-04-03T06:24:17;7.30;60.60
79055;DHT22;68452;47.186;-1.528;2023-04-03T06:26:43;7.50;60.10
79055;DHT22;68452;47.186;-1.528;2023-04-03T06:29:09;7.50;59.90
79055;DHT22;68452;47.186;-1.528;2023-04-03T06:31:35;7.60;59.60
79055;DHT22;68452;47.186;-1.528;2023-04-03T06:34:02;7.40;60.10
79055;DHT22;68452;47.186;-1.528;2023-04-03T06:36:28;7.50;59.90
79055;DHT22;68452;47.186;-1.528;2023-04-03T06:38:55;7.40;60.50
79055;DHT22;68452;47.186;-1.528;2023-04-03T06:41:21;7.50;60.20
79055;DHT22;68452;47.186;-1.528;2023-04-03T06:43:47;7.60;60.10
79055;DHT22;68452;47.186;-1.528;2023-04-03T06:46:21;7.70;60.00
79055;DHT22;68452;47.186;-1.528;2023-04-03T06:48:48;7.70;59.70
79055;DHT22;68452;47.186;-1.528;2023-04-03T06:51:21;7.70;59.70
79055;DHT22;68452;47.186;-1.528;2023-04-03T06:53:48;7.80;59.90
79055;DHT22;68452;47.186;-1.528;2023-04-03T06:56:15;7.70;59.90
79055;DHT22;68452;47.186;-1.528;2023-04-03T06:58:42;7.70;60.30
79055;DHT22;68452;47.186;-1.528;2023-04-03T07:01:09;7.70;60.20
79055;DHT22;68452;47.186;-1.528;2023-04-03T07:03:37;7.90;59.30
79055;DHT22;68452;47.186;-1.528;2023-04-03T07:06:04;8.00;59.30
79055;DHT22;68452;47.186;-1.528;2023-04-03T07:08:31;8.10;59.60
79055;DHT22;68452;47.186;-1.528;2023-04-03T07:10:57;8.00;59.70
79055;DHT22;68452;47.186;-1.528;2023-04-03T07:13:23;7.90;59.70
79055;DHT22;68452;47.186;-1.528;2023-04-03T07:15:49;8.00;59.50
79055;DHT22;68452;47.186;-1.528;2023-04-03T07:18:16;8.00;59.80
79055;DHT22;68452;47.186;-1.528;2023-04-03T07:20:42;8.00;59.60
79055;DHT22;68452;47.186;-1.528;2023-04-03T07:23:09;8.10;59.50
79055;DHT22;68452;47.186;-1.528;2023-04-03T07:25:36;8.20;59.40
79055;DHT22;68452;47.186;-1.528;2023-04-03T07:28:02;8.30;59.60
79055;DHT22;68452;47.186;-1.528;2023-04-03T07:30:27;8.30;59.90
79055;DHT22;68452;47.186;-1.528;2023-04-03T07:32:53;8.50;59.90
79055;DHT22;68452;47.186;-1.528;2023-04-03T07:35:19;8.60;59.70
79055;DHT22;68452;47.186;-1.528;2023-04-03T07:37:45;8.70;60.00
79055;DHT22;68452;47.186;-1.528;2023-04-03T07:40:11;8.80;59.80
79055;DHT22;68452;47.186;-1.528;2023-04-03T07:42:37;8.90;60.00
79055;DHT22;68452;47.186;-1.528;2023-04-03T07:45:04;9.10;60.10
79055;DHT22;68452;47.186;-1.528;2023-04-03T07:47:30;9.20;60.20
79055;DHT22;68452;47.186;-1.528;2023-04-03T07:49:57;9.20;60.00
79055;DHT22;68452;47.186;-1.528;2023-04-03T07:52:23;9.30;60.00
79055;DHT22;68452;47.186;-1.528;2023-04-03T07:54:49;9.20;60.20
79055;DHT22;68452;47.186;-1.528;2023-04-03T07:57:15;9.40;59.80
79055;DHT22;68452;47.186;-1.528;2023-04-03T07:59:41;9.60;59.20
79055;DHT22;68452;47.186;-1.528;2023-04-03T08:02:12;9.80;58.80
79055;DHT22;68452;47.186;-1.528;2023-04-03T08:04:38;9.80;58.90
79055;DHT22;68452;47.186;-1.528;2023-04-03T08:07:04;9.70;58.80
79055;DHT22;68452;47.186;-1.528;2023-04-03T08:09:30;9.70;59.10
79055;DHT22;68452;47.186;-1.528;2023-04-03T08:11:57;9.80;58.90
79055;DHT22;68452;47.186;-1.528;2023-04-03T08:14:23;10.00;58.70
79055;DHT22;68452;47.186;-1.528;2023-04-03T08:16:49;10.10;58.50
79055;DHT22;68452;47.186;-1.528;2023-04-03T08:19:16;10.10;58.30
79055;DHT22;68452;47.186;-1.528;2023-04-03T08:21:44;10.10;58.10
79055;DHT22;68452;47.186;-1.528;2023-04-03T08:24:09;10.10;58.00
79055;DHT22;68452;47.186;-1.528;2023-04-03T08:26:35;10.30;57.90
79055;DHT22;68452;47.186;-1.528;2023-04-03T08:29:02;10.50;57.60
79055;DHT22;68452;47.186;-1.528;2023-04-03T08:31:28;10.50;56.30
79055;DHT22;68452;47.186;-1.528;2023-04-03T08:33:54;10.70;56.80
79055;DHT22;68452;47.186;-1.528;2023-04-03T08:36:27;10.80;56.30
79055;DHT22;68452;47.186;-1.528;2023-04-03T08:38:54;10.70;56.00
79055;DHT22;68452;47.186;-1.528;2023-04-03T08:43:55;10.50;56.70
79055;DHT22;68452;47.186;-1.528;2023-04-03T08:46:27;10.60;56.90
79055;DHT22;68452;47.186;-1.528;2023-04-03T08:48:58;10.70;55.90
79055;DHT22;68452;47.186;-1.528;2023-04-03T08:51:26;10.70;56.00
79055;DHT22;68452;47.186;-1.528;2023-04-03T08:54:00;10.60;56.10
79055;DHT22;68452;47.186;-1.528;2023-04-03T08:56:30;10.70;55.30
79055;DHT22;68452;47.186;-1.528;2023-04-03T08:59:11;10.80;55.70
79055;DHT22;68452;47.186;-1.528;2023-04-03T09:01:41;10.70;55.50
79055;DHT22;68452;47.186;-1.528;2023-04-03T09:04:15;10.60;55.40
79055;DHT22;68452;47.186;-1.528;2023-04-03T09:06:52;10.70;55.80
79055;DHT22;68452;47.186;-1.528;2023-04-03T09:09:58;10.70;55.60
79055;DHT22;68452;47.186;-1.528;2023-04-03T09:12:25;10.80;55.50
79055;DHT22;68452;47.186;-1.528;2023-04-03T09:15:10;10.90;55.10
79055;DHT22;68452;47.186;-1.528;2023-04-03T09:18:02;10.90;55.20
79055;DHT22;68452;47.186;-1.528;2023-04-03T09:23:43;10.90;54.40
79055;DHT22;68452;47.186;-1.528;2023-04-03T09:26:24;10.90;56.00
79055;DHT22;68452;47.186;-1.528;2023-04-03T09:28:58;11.00;55.70
79055;DHT22;68452;47.186;-1.528;2023-04-03T09:31:32;10.90;55.80
79055;DHT22;68452;47.186;-1.528;2023-04-03T09:34:05;10.80;56.30
79055;DHT22;68452;47.186;-1.528;2023-04-03T09:39:17;10.90;55.80
79055;DHT22;68452;47.186;-1.528;2023-04-03T09:44:36;11.10;55.30
79055;DHT22;68452;47.186;-1.528;2023-04-03T09:47:19;11.10;56.10
79055;DHT22;68452;47.186;-1.528;2023-04-03T09:49:49;10.90;56.50
79055;DHT22;68452;47.186;-1.528;2023-04-03T09:52:25;11.00;55.80
79055;DHT22;68452;47.186;-1.528;2023-04-03T09:54:52;11.10;55.90
79055;DHT22;68452;47.186;-1.528;2023-04-03T09:57:17;11.30;55.70
79055;DHT22;68452;47.186;-1.528;2023-04-03T10:02:56;11.40;56.00
79055;DHT22;68452;47.186;-1.528;2023-04-03T10:05:34;11.50;55.80
79055;DHT22;68452;47.186;-1.528;2023-04-03T10:10:40;11.30;55.90
79055;DHT22;68452;47.186;-1.528;2023-04-03T10:13:11;11.30;55.40
79055;DHT22;68452;47.186;-1.528;2023-04-03T10:15:42;11.40;55.50
79055;DHT22;68452;47.186;-1.528;2023-04-03T10:24:28;11.30;55.50
79055;DHT22;68452;47.186;-1.528;2023-04-03T10:38:20;11.30;55.50
79055;DHT22;68452;47.186;-1.528;2023-04-03T10:41:04;11.30;55.60
79055;DHT22;68452;47.186;-1.528;2023-04-03T10:44:04;11.40;55.50
79055;DHT22;68452;47.186;-1.528;2023-04-03T10:46:49;11.60;54.90
79055;DHT22;68452;47.186;-1.528;2023-04-03T10:49:19;11.50;54.50
79055;DHT22;68452;47.186;-1.528;2023-04-03T10:52:37;11.50;54.80
79055;DHT22;68452;47.186;-1.528;2023-04-03T10:55:06;11.40;54.70
79055;DHT22;68452;47.186;-1.528;2023-04-03T10:57:40;11.30;55.70
79055;DHT22;68452;47.186;-1.528;2023-04-03T11:00:39;11.40;55.40
79055;DHT22;68452;47.186;-1.528;2023-04-03T11:03:12;11.40;55.10
79055;DHT22;68452;47.186;-1.528;2023-04-03T11:05:43;11.50;55.60
79055;DHT22;68452;47.186;-1.528;2023-04-03T11:09:16;11.50;55.50
79055;DHT22;68452;47.186;-1.528;2023-04-03T11:11:36;11.50;54.90
79055;DHT22;68452;47.186;-1.528;2023-04-03T11:14:31;11.40;55.10
79055;DHT22;68452;47.186;-1.528;2023-04-03T11:19:59;11.40;55.20
79055;DHT22;68452;47.186;-1.528;2023-04-03T11:22:39;11.40;55.20
79055;DHT22;68452;47.186;-1.528;2023-04-03T11:35:27;11.60;54.80
79055;DHT22;68452;47.186;-1.528;2023-04-03T11:37:54;11.60;55.10
79055;DHT22;68452;47.186;-1.528;2023-04-03T11:40:30;11.50;55.90
79055;DHT22;68452;47.186;-1.528;2023-04-03T11:43:28;11.50;56.70
79055;DHT22;68452;47.186;-1.528;2023-04-03T11:46:06;11.30;56.80
79055;DHT22;68452;47.186;-1.528;2023-04-03T11:53:40;11.50;55.10
79055;DHT22;68452;47.186;-1.528;2023-04-03T11:56:32;11.60;55.80
79055;DHT22;68452;47.186;-1.528;2023-04-03T12:02:00;11.70;55.30
79055;DHT22;68452;47.186;-1.528;2023-04-03T12:04:27;11.80;54.70
79055;DHT22;68452;47.186;-1.528;2023-04-03T12:07:16;11.90;55.00
79055;DHT22;68452;47.186;-1.528;2023-04-03T12:12:39;11.80;55.50
79055;DHT22;68452;47.186;-1.528;2023-04-03T12:15:44;11.80;56.00
79055;DHT22;68452;47.186;-1.528;2023-04-03T12:21:03;12.00;55.40
79055;DHT22;68452;47.186;-1.528;2023-04-03T12:23:32;12.10;54.90
79055;DHT22;68452;47.186;-1.528;2023-04-03T12:26:02;12.20;55.50
79055;DHT22;68452;47.186;-1.528;2023-04-03T12:28:36;12.40;54.90
79055;DHT22;68452;47.186;-1.528;2023-04-03T12:31:05;12.50;53.90
79055;DHT22;68452;47.186;-1.528;2023-04-03T12:36:28;12.00;55.40
79055;DHT22;68452;47.186;-1.528;2023-04-03T12:47:23;12.30;54.00
79055;DHT22;68452;47.186;-1.528;2023-04-03T12:49:50;12.30;53.50
79055;DHT22;68452;47.186;-1.528;2023-04-03T12:52:32;12.30;53.70
79055;DHT22;68452;47.186;-1.528;2023-04-03T12:55:00;12.40;53.80
79055;DHT22;68452;47.186;-1.528;2023-04-03T12:57:30;12.40;54.20
79055;DHT22;68452;47.186;-1.528;2023-04-03T12:59:58;12.40;53.80
79055;DHT22;68452;47.186;-1.528;2023-04-03T13:04:58;12.40;54.00
79055;DHT22;68452;47.186;-1.528;2023-04-03T13:07:33;12.30;54.10
79055;DHT22;68452;47.186;-1.528;2023-04-03T13:10:19;12.20;53.70
79055;DHT22;68452;47.186;-1.528;2023-04-03T13:12:56;12.20;54.10
79055;DHT22;68452;47.186;-1.528;2023-04-03T13:15:43;12.30;53.70
79055;DHT22;68452;47.186;-1.528;2023-04-03T13:18:37;12.40;53.50
79055;DHT22;68452;47.186;-1.528;2023-04-03T13:23:35;12.50;54.10
79055;DHT22;68452;47.186;-1.528;2023-04-03T13:26:03;12.60;53.80
79055;DHT22;68452;47.186;-1.528;2023-04-03T13:28:31;12.70;53.80
79055;DHT22;68452;47.186;-1.528;2023-04-03T13:33:30;12.60;53.40
79055;DHT22;68452;47.186;-1.528;2023-04-03T13:36:08;12.50;53.20
79055;DHT22;68452;47.186;-1.528;2023-04-03T13:38:36;12.50;54.10
79055;DHT22;68452;47.186;-1.528;2023-04-03T13:41:21;12.30;54.20
79055;DHT22;68452;47.186;-1.528;2023-04-03T13:43:48;12.40;54.40
79055;DHT22;68452;47.186;-1.528;2023-04-03T13:48:50;12.40;54.10
79055;DHT22;68452;47.186;-1.528;2023-04-03T13:53:57;12.20;54.20
79055;DHT22;68452;47.186;-1.528;2023-04-03T13:56:31;12.40;53.90
79055;DHT22;68452;47.186;-1.528;2023-04-03T14:01:45;12.70;52.30
79055;DHT22;68452;47.186;-1.528;2023-04-03T14:04:44;12.90;51.20
79055;DHT22;68452;47.186;-1.528;2023-04-03T14:07:12;13.00;51.50
79055;DHT22;68452;47.186;-1.528;2023-04-03T14:09:38;13.20;51.70
79055;DHT22;68452;47.186;-1.528;2023-04-03T14:12:35;13.30;50.50
79055;DHT22;68452;47.186;-1.528;2023-04-03T14:15:11;13.60;50.10
79055;DHT22;68452;47.186;-1.528;2023-04-03T14:17:41;13.80;49.40
79055;DHT22;68452;47.186;-1.528;2023-04-03T14:20:15;13.70;49.40
79055;DHT22;68452;47.186;-1.528;2023-04-03T14:22:41;13.70;49.90
79055;DHT22;68452;47.186;-1.528;2023-04-03T14:25:07;13.60;49.30
79055;DHT22;68452;47.186;-1.528;2023-04-03T14:27:37;13.50;48.70
79055;DHT22;68452;47.186;-1.528;2023-04-03T14:30:05;13.60;48.80
79055;DHT22;68452;47.186;-1.528;2023-04-03T14:32:32;14.10;48.90
79055;DHT22;68452;47.186;-1.528;2023-04-03T14:34:58;14.20;48.90
79055;DHT22;68452;47.186;-1.528;2023-04-03T14:37:26;13.90;49.10
79055;DHT22;68452;47.186;-1.528;2023-04-03T14:39:57;13.90;49.40
79055;DHT22;68452;47.186;-1.528;2023-04-03T14:42:28;14.20;48.40
79055;DHT22;68452;47.186;-1.528;2023-04-03T14:44:54;15.30;47.20
79055;DHT22;68452;47.186;-1.528;2023-04-03T14:47:24;15.60;45.60
79055;DHT22;68452;47.186;-1.528;2023-04-03T14:49:51;15.30;45.50
79055;DHT22;68452;47.186;-1.528;2023-04-03T14:52:26;15.10;46.50
79055;DHT22;68452;47.186;-1.528;2023-04-03T14:54:53;15.00;46.80
79055;DHT22;68452;47.186;-1.528;2023-04-03T14:57:21;15.10;46.90
79055;DHT22;68452;47.186;-1.528;2023-04-03T14:59:49;15.20;46.30
79055;DHT22;68452;47.186;-1.528;2023-04-03T15:02:36;15.30;45.90
79055;DHT22;68452;47.186;-1.528;2023-04-03T15:05:05;15.00;46.60
79055;DHT22;68452;47.186;-1.528;2023-04-03T15:07:34;16.00;47.60
79055;DHT22;68452;47.186;-1.528;2023-04-03T15:10:22;17.20;44.50
79055;DHT22;68452;47.186;-1.528;2023-04-03T15:12:50;17.10;42.30
79055;DHT22;68452;47.186;-1.528;2023-04-03T15:15:18;16.60;44.00
79055;DHT22;68452;47.186;-1.528;2023-04-03T15:17:45;16.40;43.90
79055;DHT22;68452;47.186;-1.528;2023-04-03T15:20:18;16.70;44.60
79055;DHT22;68452;47.186;-1.528;2023-04-03T15:22:44;16.80;44.90
79055;DHT22;68452;47.186;-1.528;2023-04-03T15:25:10;17.00;44.60
79055;DHT22;68452;47.186;-1.528;2023-04-03T15:27:37;16.50;44.20
79055;DHT22;68452;47.186;-1.528;2023-04-03T15:30:04;16.10;44.40
79055;DHT22;68452;47.186;-1.528;2023-04-03T15:32:31;15.80;44.20
79055;DHT22;68452;47.186;-1.528;2023-04-03T15:34:57;15.60;44.80
79055;DHT22;68452;47.186;-1.528;2023-04-03T15:37:23;15.80;45.00
79055;DHT22;68452;47.186;-1.528;2023-04-03T15:39:48;15.80;44.30
79055;DHT22;68452;47.186;-1.528;2023-04-03T15:42:14;15.90;44.50
79055;DHT22;68452;47.186;-1.528;2023-04-03T15:44:41;16.10;45.80
79055;DHT22;68452;47.186;-1.528;2023-04-03T15:47:07;16.00;44.00
79055;DHT22;68452;47.186;-1.528;2023-04-03T15:49:34;15.90;44.10
79055;DHT22;68452;47.186;-1.528;2023-04-03T15:52:00;15.80;44.30
79055;DHT22;68452;47.186;-1.528;2023-04-03T15:54:26;15.60;44.50
79055;DHT22;68452;47.186;-1.528;2023-04-03T15:56:53;15.20;45.90
79055;DHT22;68452;47.186;-1.528;2023-04-03T15:59:18;14.80;45.70
79055;DHT22;68452;47.186;-1.528;2023-04-03T16:01:45;14.70;45.20
79055;DHT22;68452;47.186;-1.528;2023-04-03T16:04:11;14.70;45.70
79055;DHT22;68452;47.186;-1.528;2023-04-03T16:06:38;14.70;45.70
79055;DHT22;68452;47.186;-1.528;2023-04-03T16:09:04;14.70;45.90
79055;DHT22;68452;47.186;-1.528;2023-04-03T16:11:30;14.70;46.10
79055;DHT22;68452;47.186;-1.528;2023-04-03T16:13:56;14.70;45.30
79055;DHT22;68452;47.186;-1.528;2023-04-03T16:16:23;14.40;45.70
79055;DHT22;68452;47.186;-1.528;2023-04-03T16:18:50;14.20;46.00
79055;DHT22;68452;47.186;-1.528;2023-04-03T16:21:17;14.20;47.00
79055;DHT22;68452;47.186;-1.528;2023-04-03T16:23:44;14.20;46.50
79055;DHT22;68452;47.186;-1.528;2023-04-03T16:26:10;14.20;47.30
79055;DHT22;68452;47.186;-1.528;2023-04-03T16:28:36;14.10;48.20
79055;DHT22;68452;47.186;-1.528;2023-04-03T16:31:02;14.00;47.40
79055;DHT22;68452;47.186;-1.528;2023-04-03T16:33:29;14.10;47.50
79055;DHT22;68452;47.186;-1.528;2023-04-03T16:35:55;14.10;46.80
79055;DHT22;68452;47.186;-1.528;2023-04-03T16:38:21;14.00;46.90
79055;DHT22;68452;47.186;-1.528;2023-04-03T16:40:49;13.80;46.90
79055;DHT22;68452;47.186;-1.528;2023-04-03T16:43:16;13.90;47.30
79055;DHT22;68452;47.186;-1.528;2023-04-03T16:45:42;13.80;48.40
79055;DHT22;68452;47.186;-1.528;2023-04-03T16:48:08;13.50;49.40
79055;DHT22;68452;47.186;-1.528;2023-04-03T16:50:34;13.60;49.00
79055;DHT22;68452;47.186;-1.528;2023-04-03T16:53:00;13.90;48.40
79055;DHT22;68452;47.186;-1.528;2023-04-03T16:55:28;13.90;48.80
79055;DHT22;68452;47.186;-1.528;2023-04-03T16:57:54;13.60;48.30
79055;DHT22;68452;47.186;-1.528;2023-04-03T17:00:21;13.50;48.80
79055;DHT22;68452;47.186;-1.528;2023-04-03T17:02:47;13.50;48.80
79055;DHT22;68452;47.186;-1.528;2023-04-03T17:05:13;13.50;48.40
79055;DHT22;68452;47.186;-1.528;2023-04-03T17:07:40;13.60;48.80
79055;DHT22;68452;47.186;-1.528;2023-04-03T17:10:07;13.60;48.50